Terminal Aerodrome Forecast
Issued by NWS

Home | Current Version | Previous Version | Text Only | Print | Product List | Glossary On
Versions: 1 2 3 4 5 6 7 8 9 10 11 12 13 14 15 16
000
FTUS45 KTFX 050822 AAA
TAFHVR
TAF AMD
KHVR 050822Z 0508/0606 35008KT P6SM -SHRA SCT025 OVC050
      TEMPO 0508/0512 BKN025
     FM051900 28010KT P6SM SCT070 BKN110=

USA.gov is the U.S. government's official web portal to all federal, state and local government web resources and services.